Time;durP1;ratioP1;P1;durP2;ratioP2;P2;SDS_P1;SDS_P2;PMS_P1;PMS_P2;Temp;Humidity;BMP_temperature;BMP_pressure;BME280_temperature;BME280_humidity;BME280_pressure;Samples;Min_cycle;Max_cycle;Signal;HPM_P1;HPM_P2
2022/08/22 00:01:13;;;;;;;4.17;1.50;;;;;;;20.46;100.00;98917.13;5108512;28;20222;-80
2022/08/22 00:03:56;;;;;;;3.47;1.70;;;;;;;20.33;100.00;98914.09;5109444;28;20240;-80
2022/08/22 00:06:35;;;;;;;3.43;1.50;;;;;;;20.36;100.00;98914.56;5109770;28;20302;-80
2022/08/22 00:09:18;;;;;;;3.20;1.60;;;;;;;20.05;100.00;98919.75;5111619;28;20249;-80
2022/08/22 00:11:53;;;;;;;3.23;1.50;;;;;;;20.12;100.00;98920.78;5107827;28;20278;-80
2022/08/22 00:14:35;;;;;;;2.80;1.83;;;;;;;19.81;100.00;98917.00;5109231;28;20237;-80
2022/08/22 00:17:13;;;;;;;3.13;1.77;;;;;;;20.13;100.00;98908.16;5113448;28;20199;-80
2022/08/22 00:19:51;;;;;;;2.83;1.57;;;;;;;20.06;100.00;98909.81;5109158;28;20249;-79
2022/08/22 00:22:26;;;;;;;3.37;1.67;;;;;;;19.93;100.00;98923.75;5029861;28;20202;-80
2022/08/22 00:25:01;;;;;;;3.13;1.60;;;;;;;20.06;100.00;98925.97;5023713;28;20212;-80
2022/08/22 00:27:37;;;;;;;2.93;1.47;;;;;;;19.92;100.00;98912.16;5026272;28;20224;-80
2022/08/22 00:30:17;;;;;;;3.20;1.80;;;;;;;19.99;100.00;98912.34;5030214;28;20198;-80
2022/08/22 00:32:50;;;;;;;2.57;1.63;;;;;;;19.81;100.00;98917.00;5031775;28;20205;-80
2022/08/22 00:35:24;;;;;;;3.03;1.40;;;;;;;19.78;100.00;98922.69;5026579;28;20280;-80
2022/08/22 00:38:02;;;;;;;2.60;1.50;;;;;;;19.79;100.00;98919.00;5027813;28;20196;-80
2022/08/22 00:40:42;;;;;;;3.50;1.80;;;;;;;19.64;100.00;98927.69;5031556;28;20197;-80
2022/08/22 00:43:46;;;;;;;3.47;1.70;;;;;;;19.64;100.00;98914.25;5030218;28;20312;-80
2022/08/22 00:46:44;;;;;;;2.70;1.50;;;;;;;19.47;100.00;98919.66;5042244;28;20195;-80
2022/08/22 00:49:29;;;;;;;2.40;1.77;;;;;;;19.52;100.00;98912.81;5093622;28;20211;-80
2022/08/22 00:52:25;;;;;;;3.13;1.80;;;;;;;19.44;100.00;98916.31;5088236;28;20207;-80
2022/08/22 00:55:17;;;;;;;3.97;1.60;;;;;;;19.52;100.00;98917.34;5093777;28;20198;-80
2022/08/22 00:58:05;;;;;;;3.47;1.60;;;;;;;19.51;100.00;98916.50;5068245;28;20195;-79
2022/08/22 01:00:41;;;;;;;3.23;1.70;;;;;;;19.54;100.00;98916.19;5092032;28;20202;-80
2022/08/22 01:03:49;;;;;;;3.97;1.90;;;;;;;19.48;100.00;98911.44;5092135;28;20188;-79
2022/08/22 01:06:24;;;;;;;2.87;1.70;;;;;;;19.51;100.00;98915.66;5093269;28;20207;-80
2022/08/22 01:09:04;;;;;;;2.50;1.77;;;;;;;19.66;100.00;98914.91;5093212;28;20199;-80
2022/08/22 01:11:49;;;;;;;3.10;1.63;;;;;;;19.54;100.00;98913.50;5093336;28;20207;-80
2022/08/22 01:14:36;;;;;;;3.63;1.83;;;;;;;19.38;100.00;98910.72;5089648;28;20222;-80
2022/08/22 01:17:27;;;;;;;3.43;1.50;;;;;;;19.40;100.00;98916.78;5090616;28;20194;-80
2022/08/22 01:20:26;;;;;;;2.33;1.60;;;;;;;19.26;100.00;98912.00;5039299;28;20241;-79
2022/08/22 01:23:32;;;;;;;4.57;1.70;;;;;;;19.26;100.00;98912.84;5092854;28;20199;-80
2022/08/22 01:26:41;;;;;;;4.63;1.67;;;;;;;19.29;100.00;98911.69;5092847;28;20210;-80
2022/08/22 01:29:36;;;;;;;2.77;1.90;;;;;;;19.32;100.00;98908.69;5087947;28;20259;-80
2022/08/22 01:32:38;;;;;;;3.83;1.70;;;;;;;19.22;100.00;98905.28;5093718;28;20198;-80
2022/08/22 01:35:56;;;;;;;3.63;1.87;;;;;;;19.21;100.00;98908.97;5092732;28;20270;-80
2022/08/22 01:38:52;;;;;;;5.20;1.80;;;;;;;19.07;100.00;98905.84;5043054;28;20198;-79
2022/08/22 01:41:58;;;;;;;3.33;1.70;;;;;;;18.97;100.00;98906.97;5091937;28;20221;-79
2022/08/22 01:44:47;;;;;;;3.90;1.50;;;;;;;18.97;100.00;98910.47;5069096;28;20223;-80
2022/08/22 01:47:21;;;;;;;4.30;2.00;;;;;;;18.76;100.00;98910.84;5092778;28;20679;-79
2022/08/22 01:49:55;;;;;;;3.73;1.63;;;;;;;18.65;100.00;98904.88;5088433;28;20290;-80
2022/08/22 01:52:37;;;;;;;3.33;1.60;;;;;;;18.59;100.00;98909.00;5085535;28;20274;-80
2022/08/22 01:55:11;;;;;;;3.57;1.70;;;;;;;18.58;100.00;98910.00;5089967;28;20223;-79
2022/08/22 01:57:53;;;;;;;3.97;1.67;;;;;;;18.60;100.00;98908.84;5091861;28;20227;-80
2022/08/22 02:00:27;;;;;;;3.20;1.77;;;;;;;18.67;100.00;98911.78;5090496;28;20275;-79
2022/08/22 02:03:19;;;;;;;5.53;1.70;;;;;;;18.66;100.00;98914.63;5092815;28;20227;-79
2022/08/22 02:05:58;;;;;;;4.37;1.80;;;;;;;18.73;100.00;98908.47;5091371;28;20405;-80
2022/08/22 02:08:38;;;;;;;3.67;1.70;;;;;;;18.69;100.00;98899.03;5091330;28;20218;-80
2022/08/22 02:11:10;;;;;;;2.93;1.50;;;;;;;18.63;100.00;98907.69;5091308;28;20654;-79
2022/08/22 02:13:54;;;;;;;4.20;1.60;;;;;;;18.72;100.00;98917.53;5091459;28;20200;-80
2022/08/22 02:16:32;;;;;;;5.53;2.17;;;;;;;18.31;100.00;98925.16;5091323;28;20214;-80
2022/08/22 02:19:11;;;;;;;3.70;1.70;;;;;;;18.10;100.00;98915.75;5097592;28;20203;-79
2022/08/22 02:21:48;;;;;;;4.37;1.87;;;;;;;18.29;100.00;98911.09;5092723;28;20187;-80
2022/08/22 02:24:25;;;;;;;4.33;1.97;;;;;;;18.08;100.00;98918.59;5093460;28;20372;-79
2022/08/22 02:27:10;;;;;;;3.43;1.50;;;;;;;18.23;100.00;98914.38;5093515;28;20188;-80
2022/08/22 02:29:46;;;;;;;3.27;1.60;;;;;;;18.32;100.00;98912.59;5095034;28;20199;-79
2022/08/22 02:32:26;;;;;;;5.70;2.23;;;;;;;18.19;100.00;98921.03;5090586;28;20199;-79
2022/08/22 02:35:03;;;;;;;5.73;1.87;;;;;;;18.05;100.00;98916.22;5092996;28;20390;-80
2022/08/22 02:37:36;;;;;;;4.20;2.00;;;;;;;18.11;100.00;98909.38;5093341;28;20287;-79
2022/08/22 02:40:17;;;;;;;4.00;1.80;;;;;;;18.15;100.00;98917.00;5096058;28;20204;-79
2022/08/22 02:42:55;;;;;;;3.13;1.53;;;;;;;18.22;100.00;98914.53;5095626;28;20194;-80
2022/08/22 02:45:37;;;;;;;3.20;1.90;;;;;;;18.18;100.00;98913.16;5110839;28;20222;-80
2022/08/22 02:48:16;;;;;;;2.47;1.40;;;;;;;18.04;100.00;98914.50;5068581;28;20208;-79
2022/08/22 02:50:51;;;;;;;3.00;1.77;;;;;;;18.08;100.00;98918.59;5069575;28;20226;-79
2022/08/22 02:53:27;;;;;;;3.47;1.80;;;;;;;17.91;100.00;98909.53;5066418;28;20407;-80
2022/08/22 02:56:04;;;;;;;4.23;1.60;;;;;;;17.85;100.00;98912.78;5072808;28;20273;-80
2022/08/22 02:58:43;;;;;;;3.93;1.80;;;;;;;17.85;100.00;98915.47;5072218;28;20287;-79
2022/08/22 03:01:23;;;;;;;4.47;2.10;;;;;;;17.91;100.00;98914.03;5072077;28;20639;-79
2022/08/22 03:03:52;;;;;;;3.53;1.80;;;;;;;17.85;100.00;98904.75;5073041;28;20207;-80
2022/08/22 03:06:36;;;;;;;4.03;1.53;;;;;;;17.77;100.00;98907.38;5095297;28;20205;-80
2022/08/22 03:09:20;;;;;;;2.97;1.80;;;;;;;17.73;100.00;98906.81;5115873;28;20294;-79
2022/08/22 03:12:04;;;;;;;3.10;1.63;;;;;;;17.64;100.00;98904.97;5112217;28;20191;-79
2022/08/22 03:14:42;;;;;;;2.90;1.70;;;;;;;17.58;100.00;98904.75;5114899;28;20199;-80
2022/08/22 03:17:19;;;;;;;5.37;1.93;;;;;;;17.43;100.00;98905.22;5116471;28;20198;-79
2022/08/22 03:19:56;;;;;;;3.10;1.57;;;;;;;17.30;100.00;98898.53;5111047;28;20538;-79
2022/08/22 03:22:35;;;;;;;3.00;2.10;;;;;;;17.35;100.00;98907.81;5112538;28;20737;-79
2022/08/22 03:25:13;;;;;;;3.07;2.10;;;;;;;17.38;100.00;98915.56;5112636;28;20207;-79
2022/08/22 03:27:52;;;;;;;4.80;2.13;;;;;;;17.27;100.00;98899.66;5070036;28;20512;-80
2022/08/22 03:30:32;;;;;;;3.97;1.90;;;;;;;17.09;100.00;98901.44;5067017;28;20192;-80
2022/08/22 03:33:16;;;;;;;5.50;1.97;;;;;;;17.06;100.00;98899.03;5070174;28;20275;-80
2022/08/22 03:36:05;;;;;;;4.73;2.00;;;;;;;17.16;100.00;98903.34;5067667;28;20223;-80
2022/08/22 03:38:51;;;;;;;2.73;1.73;;;;;;;17.02;100.00;98900.31;5063799;28;20200;-80
2022/08/22 03:41:48;;;;;;;3.10;2.20;;;;;;;17.14;100.00;98900.00;5068517;28;20227;-80
2022/08/22 03:44:58;;;;;;;4.63;1.93;;;;;;;17.01;100.00;98899.47;5070428;28;20730;-80
2022/08/22 03:48:01;;;;;;;3.97;1.87;;;;;;;17.07;100.00;98906.06;5108331;28;20199;-80
2022/08/22 03:51:00;;;;;;;5.30;2.37;;;;;;;17.03;100.00;98894.81;5114676;28;20183;-80
2022/08/22 03:54:07;;;;;;;3.57;1.77;;;;;;;17.18;100.00;98900.56;5114102;28;20270;-80
2022/08/22 03:57:09;;;;;;;2.80;1.93;;;;;;;17.04;100.00;98901.84;5109306;28;20263;-80
2022/08/22 04:00:08;;;;;;;4.47;2.10;;;;;;;17.00;100.00;98894.28;5111848;28;20665;-80
2022/08/22 04:03:08;;;;;;;4.50;2.20;;;;;;;17.02;100.00;98898.50;5111048;28;20187;-80
2022/08/22 04:06:07;;;;;;;4.70;2.30;;;;;;;17.08;100.00;98894.38;5086770;28;20205;-80
2022/08/22 04:09:21;;;;;;;4.70;2.30;;;;;;;17.17;100.00;98896.16;5114724;28;20214;-80
2022/08/22 04:12:12;;;;;;;4.73;1.90;;;;;;;17.30;100.00;98906.56;5094783;28;20198;-80
2022/08/22 04:15:20;;;;;;;4.43;2.20;;;;;;;17.22;100.00;98909.97;5108355;28;20337;-80
2022/08/22 04:18:18;;;;;;;3.57;2.13;;;;;;;17.06;100.00;98907.91;5114480;28;20192;-80
2022/08/22 04:21:39;;;;;;;3.07;2.20;;;;;;;16.97;100.00;98911.44;5108491;28;20229;-80
2022/08/22 04:24:34;;;;;;;5.03;2.50;;;;;;;17.02;100.00;98914.53;5111936;28;20248;-81
2022/08/22 04:27:08;;;;;;;4.20;2.30;;;;;;;17.15;100.00;98922.25;5114572;28;20278;-80
2022/08/22 04:29:43;;;;;;;5.27;2.13;;;;;;;17.23;100.00;98913.50;5110135;28;20214;-80
2022/08/22 04:32:21;;;;;;;3.63;2.10;;;;;;;17.31;100.00;98911.78;5114246;28;20212;-80
2022/08/22 04:34:57;;;;;;;3.73;2.03;;;;;;;17.34;100.00;98907.94;5109484;28;20194;-80
2022/08/22 04:37:35;;;;;;;3.63;2.20;;;;;;;17.41;100.00;98912.56;5108698;28;20205;-80
2022/08/22 04:40:10;;;;;;;5.00;2.30;;;;;;;17.44;100.00;98914.09;5110740;28;20209;-81
2022/08/22 04:42:44;;;;;;;4.27;2.20;;;;;;;17.50;100.00;98915.38;5113159;28;20244;-80
2022/08/22 04:45:18;;;;;;;4.07;2.30;;;;;;;17.65;100.00;98914.72;5112205;28;20251;-80
2022/08/22 04:47:54;;;;;;;5.97;2.37;;;;;;;17.59;100.00;98909.13;5108665;28;20286;-80
2022/08/22 04:50:29;;;;;;;4.03;2.43;;;;;;;17.59;100.00;98911.78;5113908;28;20250;-80
2022/08/22 04:53:11;;;;;;;6.13;2.47;;;;;;;17.72;100.00;98915.00;5114353;28;20278;-81
2022/08/22 04:55:49;;;;;;;5.07;2.30;;;;;;;17.79;100.00;98923.28;5109946;28;20273;-80
2022/08/22 04:58:34;;;;;;;4.13;2.00;;;;;;;17.83;100.00;98919.31;5108332;28;20270;-80
2022/08/22 05:01:12;;;;;;;5.03;2.23;;;;;;;17.76;100.00;98921.75;5110917;28;20198;-80
2022/08/22 05:03:46;;;;;;;3.00;2.13;;;;;;;17.78;100.00;98925.13;5111674;28;20197;-80
2022/08/22 05:06:19;;;;;;;3.53;2.33;;;;;;;17.80;100.00;98924.97;5103980;28;20206;-80
2022/08/22 05:08:50;;;;;;;5.87;2.00;;;;;;;17.98;100.00;98937.41;5107946;28;20223;-80
2022/08/22 05:11:23;;;;;;;3.60;2.10;;;;;;;18.07;100.00;98937.50;5102702;28;20202;-80
2022/08/22 05:13:57;;;;;;;5.43;2.77;;;;;;;18.10;100.00;98940.72;5104931;28;20199;-80
2022/08/22 05:16:31;;;;;;;4.10;2.37;;;;;;;18.14;100.00;98935.88;5113459;28;20286;-80
2022/08/22 05:19:03;;;;;;;5.37;2.30;;;;;;;18.18;100.00;98938.13;5110723;28;20239;-80
2022/08/22 05:21:40;;;;;;;3.53;2.20;;;;;;;18.36;100.00;98931.94;5113337;28;20201;-80
2022/08/22 05:24:11;;;;;;;3.57;2.03;;;;;;;18.43;100.00;98928.50;5110557;28;20195;-80
2022/08/22 05:26:46;;;;;;;4.87;2.13;;;;;;;18.53;100.00;98925.72;5111765;28;20206;-79
2022/08/22 05:29:22;;;;;;;4.93;2.10;;;;;;;18.61;100.00;98928.44;5108470;28;20211;-80
2022/08/22 05:31:57;;;;;;;3.80;2.10;;;;;;;18.67;100.00;98929.72;5110554;28;20191;-80
2022/08/22 05:34:34;;;;;;;6.97;2.13;;;;;;;18.76;100.00;98935.00;5108827;28;20274;-80
2022/08/22 05:37:11;;;;;;;9.67;2.27;;;;;;;18.68;100.00;98934.09;5028327;28;20206;-80
2022/08/22 05:39:45;;;;;;;3.97;2.23;;;;;;;18.71;100.00;98931.91;5026099;28;20205;-80
2022/08/22 05:42:20;;;;;;;4.90;2.20;;;;;;;18.74;100.00;98926.25;5027337;28;20698;-80
2022/08/22 05:44:49;;;;;;;5.73;2.53;;;;;;;18.78;100.00;98940.19;5025664;28;20376;-81
2022/08/22 05:47:23;;;;;;;4.57;2.40;;;;;;;18.76;100.00;98937.69;5024456;28;20281;-80
2022/08/22 05:50:00;;;;;;;4.40;2.30;;;;;;;18.96;100.00;98934.81;5021670;28;20256;-80
2022/08/22 05:52:44;;;;;;;3.77;1.93;;;;;;;18.86;100.00;98938.44;5026655;28;20209;-81
2022/08/22 05:55:25;;;;;;;3.90;2.07;;;;;;;19.00;100.00;98939.69;5076524;28;20225;-80
2022/08/22 05:58:18;;;;;;;4.20;2.30;;;;;;;19.00;100.00;98936.16;5111594;28;20277;-80
2022/08/22 06:00:52;;;;;;;4.67;2.20;;;;;;;19.16;100.00;98930.91;5116062;28;20191;-80
2022/08/22 06:03:28;;;;;;;5.93;2.00;;;;;;;19.32;100.00;98932.88;5112140;28;20199;-80
2022/08/22 06:05:59;;;;;;;5.00;2.10;;;;;;;19.30;100.00;98933.03;5114107;28;20202;-80
2022/08/22 06:08:35;;;;;;;3.37;2.13;;;;;;;19.33;100.00;98938.06;5110871;28;20674;-81
2022/08/22 06:11:09;;;;;;;5.23;2.13;;;;;;;19.40;100.00;98932.91;5114072;28;20302;-80
2022/08/22 06:13:47;;;;;;;4.07;2.00;;;;;;;19.48;100.00;98938.31;5062839;28;20187;-80
2022/08/22 06:16:24;;;;;;;5.47;1.90;;;;;;;19.62;100.00;98936.91;5109673;28;20203;-80
2022/08/22 06:18:54;;;;;;;3.07;1.90;;;;;;;19.68;100.00;98936.25;5110645;28;20191;-80
2022/08/22 06:21:30;;;;;;;5.83;2.03;;;;;;;19.76;100.00;98930.06;5074195;28;20184;-80
2022/08/22 06:24:13;;;;;;;4.73;2.13;;;;;;;19.79;100.00;98930.59;5073904;28;20231;-81
2022/08/22 06:26:48;;;;;;;4.47;2.07;;;;;;;19.84;100.00;98940.84;5072078;28;20195;-80
2022/08/22 06:29:29;;;;;;;3.10;1.93;;;;;;;20.13;100.00;98941.28;5072464;28;20203;-80
2022/08/22 06:32:02;;;;;;;5.57;2.40;;;;;;;20.09;100.00;98945.31;5070237;28;20220;-80
2022/08/22 06:34:36;;;;;;;6.07;2.30;;;;;;;20.16;100.00;98943.63;5071149;28;20319;-80
2022/08/22 06:37:09;;;;;;;3.87;2.10;;;;;;;20.24;100.00;98949.03;5068644;28;20243;-80
2022/08/22 06:39:44;;;;;;;3.90;2.23;;;;;;;20.12;100.00;98952.19;5092945;28;20191;-80
2022/08/22 06:42:16;;;;;;;4.97;2.17;;;;;;;20.33;100.00;98957.13;5113612;28;20209;-80
2022/08/22 06:44:49;;;;;;;6.13;1.90;;;;;;;20.54;100.00;98965.59;5076756;28;20215;-80
2022/08/22 06:47:25;;;;;;;5.10;2.00;;;;;;;20.62;100.00;98954.00;5112324;28;20208;-80
2022/08/22 06:50:00;;;;;;;3.97;2.10;;;;;;;20.22;100.00;98956.44;5071149;28;20220;-81
2022/08/22 06:52:32;;;;;;;4.53;2.33;;;;;;;20.61;100.00;98961.22;5066772;28;20315;-80
2022/08/22 06:55:07;;;;;;;6.83;2.47;;;;;;;20.70;100.00;98948.63;5073491;28;20307;-81
2022/08/22 06:57:43;;;;;;;3.92;2.17;;;;;;;20.85;100.00;98950.50;5065782;28;20204;-81
2022/08/22 07:00:15;;;;;;;4.27;2.17;;;;;;;21.05;100.00;98958.22;5066662;28;20192;-80
2022/08/22 07:02:48;;;;;;;5.03;2.50;;;;;;;21.14;100.00;98954.50;5072370;28;20207;-80
2022/08/22 07:05:20;;;;;;;4.05;2.30;;;;;;;21.48;100.00;98951.59;5066996;28;20246;-80
2022/08/22 07:07:49;;;;;;;4.45;2.25;;;;;;;21.55;100.00;98963.38;5084514;28;20195;-80
2022/08/22 07:10:24;;;;;;;3.33;1.90;;;;;;;21.53;100.00;98962.69;5111312;28;20217;-80
2022/08/22 07:12:56;;;;;;;3.10;2.10;;;;;;;21.81;100.00;98959.53;5109273;28;20254;-80
2022/08/22 07:15:34;;;;;;;10.48;2.30;;;;;;;21.93;100.00;98966.25;5116109;28;20186;-81
2022/08/22 07:18:07;;;;;;;5.68;2.20;;;;;;;22.24;100.00;98961.75;5107264;28;20229;-80
2022/08/22 07:20:40;;;;;;;5.82;3.10;;;;;;;22.30;100.00;98968.31;5074964;28;20412;-80
2022/08/22 07:23:14;;;;;;;5.40;2.70;;;;;;;22.68;100.00;98969.22;5111026;28;20210;-80
2022/08/22 07:25:54;;;;;;;4.18;2.50;;;;;;;22.71;100.00;98968.03;5113614;28;20215;-80
2022/08/22 07:28:39;;;;;;;3.72;2.58;;;;;;;22.81;100.00;98963.22;5108552;28;20269;-80
2022/08/22 07:31:35;;;;;;;6.13;2.95;;;;;;;22.57;100.00;98958.81;5052376;28;20219;-80
2022/08/22 07:34:39;;;;;;;6.03;3.70;;;;;;;22.74;100.00;98959.53;5048257;28;20189;-81
2022/08/22 07:37:14;;;;;;;6.72;3.70;;;;;;;22.82;100.00;98956.78;5044883;28;20212;-80
2022/08/22 07:39:50;;;;;;;3.83;3.10;;;;;;;22.95;100.00;98953.50;5050409;28;20205;-80
2022/08/22 07:42:30;;;;;;;3.75;3.22;;;;;;;23.11;100.00;98964.16;5050193;28;20189;-80
2022/08/22 07:45:06;;;;;;;6.32;3.50;;;;;;;23.32;100.00;98968.84;5042830;28;20232;-80
2022/08/22 07:47:49;;;;;;;6.00;3.83;;;;;;;23.37;100.00;98969.16;5052374;28;20200;-81
2022/08/22 07:50:25;;;;;;;4.18;3.50;;;;;;;23.29;100.00;98972.78;5047259;28;20311;-81
2022/08/22 07:53:04;;;;;;;4.57;3.47;;;;;;;23.56;100.00;98971.31;5050243;28;20297;-81
2022/08/22 07:55:34;;;;;;;3.80;3.20;;;;;;;23.48;100.00;98974.09;5077758;28;20248;-81
2022/08/22 07:58:21;;;;;;;4.55;3.90;;;;;;;23.55;100.00;98977.75;5111025;28;20199;-80
2022/08/22 08:00:53;;;;;;;4.82;3.65;;;;;;;23.58;100.00;98965.72;5103771;28;20191;-81
2022/08/22 08:03:24;;;;;;;5.88;3.53;;;;;;;23.86;100.00;98966.75;5107101;28;20257;-81
2022/08/22 08:05:53;;;;;;;6.55;3.35;;;;;;;23.99;99.68;98971.50;5108781;28;20217;-80
2022/08/22 08:08:26;;;;;;;4.20;3.15;;;;;;;23.93;98.73;98966.81;5098546;28;20200;-81
2022/08/22 08:10:57;;;;;;;5.07;3.35;;;;;;;24.07;97.89;98971.41;5093034;28;20246;-81
2022/08/22 08:13:31;;;;;;;8.60;3.33;;;;;;;24.12;97.13;98971.66;5093364;28;20267;-81
2022/08/22 08:16:01;;;;;;;3.90;3.10;;;;;;;24.36;95.62;98975.09;5109324;28;20665;-81
2022/08/22 08:18:35;;;;;;;4.32;3.38;;;;;;;23.61;99.96;98960.78;5112679;28;20250;-81
2022/08/22 08:21:07;;;;;;;4.18;3.35;;;;;;;24.17;97.42;98966.53;5029217;28;20233;-81
2022/08/22 08:23:38;;;;;;;4.57;3.20;;;;;;;24.32;95.32;98965.66;5028367;28;20249;-80
2022/08/22 08:26:11;;;;;;;6.07;3.28;;;;;;;24.50;90.80;98971.50;5027754;28;20218;-81
2022/08/22 08:28:43;;;;;;;4.03;2.90;;;;;;;24.46;90.71;98968.34;5025401;28;20273;-81
2022/08/22 08:31:23;;;;;;;5.05;3.05;;;;;;;24.78;90.03;98971.56;5025907;28;20329;-81
2022/08/22 08:34:00;;;;;;;6.18;3.28;;;;;;;24.95;86.38;98961.31;5023124;28;20202;-81
2022/08/22 08:36:37;;;;;;;6.45;3.13;;;;;;;25.21;84.16;98972.41;5007032;28;20198;-81
2022/08/22 08:39:15;;;;;;;5.47;3.10;;;;;;;25.30;82.14;98962.25;5005574;28;20213;-80
2022/08/22 08:42:15;;;;;;;4.07;2.90;;;;;;;25.39;81.25;98967.34;5006764;28;20286;-80
2022/08/22 08:45:13;;;;;;;3.15;2.83;;;;;;;25.48;81.17;98975.28;5014568;28;20705;-80
2022/08/22 08:48:07;;;;;;;4.05;3.17;;;;;;;25.51;80.65;98972.22;5071939;28;20242;-81
2022/08/22 08:50:48;;;;;;;4.30;2.83;;;;;;;25.52;79.76;98973.88;5073320;28;20275;-81
2022/08/22 08:54:04;;;;;;;4.68;2.92;;;;;;;25.40;80.76;98974.44;5071773;28;20274;-81
2022/08/22 08:56:43;;;;;;;5.03;2.95;;;;;;;25.56;79.97;98970.56;5043977;28;20243;-81
2022/08/22 08:59:27;;;;;;;5.50;2.85;;;;;;;25.80;77.89;98974.72;5066451;28;20206;-80
2022/08/22 09:02:19;;;;;;;4.53;3.05;;;;;;;26.09;76.70;98967.34;5073251;28;20208;-81
2022/08/22 09:05:36;;;;;;;5.38;2.40;;;;;;;26.07;75.23;98967.53;5073393;28;20408;-80
2022/08/22 09:08:37;;;;;;;4.10;2.97;;;;;;;26.03;74.56;98955.41;5072026;28;20219;-80
2022/08/22 09:11:32;;;;;;;4.72;2.90;;;;;;;26.37;73.28;98956.38;5054487;28;20242;-80
2022/08/22 09:14:18;;;;;;;3.60;2.72;;;;;;;26.43;72.36;98961.81;5072386;28;20189;-81
2022/08/22 09:17:04;;;;;;;4.13;2.72;;;;;;;26.03;72.46;98966.25;5007539;28;20190;-81
2022/08/22 09:20:10;;;;;;;4.00;2.70;;;;;;;25.38;77.90;98962.09;5007237;28;20194;-80
2022/08/22 09:23:12;;;;;;;5.55;3.05;;;;;;;25.27;77.67;98958.06;5000387;28;20229;-80
2022/08/22 09:25:48;;;;;;;3.38;2.58;;;;;;;25.67;76.34;98956.47;5007696;28;20254;-80
2022/08/22 09:28:26;;;;;;;3.88;2.80;;;;;;;26.14;72.81;98962.13;5009346;28;20225;-81
2022/08/22 09:31:11;;;;;;;3.65;2.60;;;;;;;26.54;70.96;98952.25;5011237;28;20194;-81
2022/08/22 09:34:12;;;;;;;5.32;2.67;;;;;;;26.65;67.06;98951.66;5017935;28;20205;-81
2022/08/22 09:37:16;;;;;;;6.57;2.88;;;;;;;26.61;69.01;98955.81;5074252;28;20188;-80
2022/08/22 09:39:57;;;;;;;3.80;2.80;;;;;;;26.98;66.76;98942.69;5073136;28;20192;-80
2022/08/22 09:42:38;;;;;;;4.03;3.10;;;;;;;26.71;67.31;98931.78;5069033;28;20203;-81
2022/08/22 09:45:47;;;;;;;3.33;2.78;;;;;;;26.87;65.28;98932.44;5088185;28;20224;-81
2022/08/22 09:48:42;;;;;;;5.43;2.45;;;;;;;27.08;59.85;98924.94;5083708;28;20286;-80
2022/08/22 09:51:21;;;;;;;5.03;2.97;;;;;;;26.82;62.58;98928.44;5093103;28;20211;-80
2022/08/22 09:54:14;;;;;;;3.67;2.45;;;;;;;26.89;62.63;98920.31;5077501;28;20286;-80
2022/08/22 09:56:58;;;;;;;7.70;3.35;;;;;;;27.17;62.15;98920.13;5092661;28;20242;-80
2022/08/22 09:59:44;;;;;;;5.30;3.00;;;;;;;27.41;62.10;98915.03;5088268;28;20211;-80
2022/08/22 10:02:28;;;;;;;4.95;3.03;;;;;;;27.80;60.20;98917.72;5092822;28;20192;-80
2022/08/22 10:05:06;;;;;;;5.32;2.70;;;;;;;28.34;57.46;98912.84;5087645;28;20663;-80
2022/08/22 10:08:02;;;;;;;5.30;2.80;;;;;;;27.70;56.36;98911.00;5090470;28;20702;-80
2022/08/22 10:11:04;;;;;;;5.20;2.80;;;;;;;27.14;55.31;98914.28;5090983;28;20191;-80
2022/08/22 10:13:49;;;;;;;4.90;2.53;;;;;;;26.26;59.29;98900.78;5086604;28;20296;-80
2022/08/22 10:16:42;;;;;;;5.22;2.75;;;;;;;26.78;57.27;98902.72;5090154;28;20256;-79
2022/08/22 10:19:18;;;;;;;5.18;2.70;;;;;;;26.79;55.36;98898.13;5090042;28;20203;-79
2022/08/22 10:22:14;;;;;;;4.90;2.53;;;;;;;27.54;52.35;98896.81;5091091;28;20203;-80
2022/08/22 10:24:47;;;;;;;4.70;3.00;;;;;;;27.91;53.67;98888.97;5088463;28;20192;-80
2022/08/22 10:27:26;;;;;;;4.15;2.70;;;;;;;28.58;51.71;98881.28;5091666;28;20699;-81
2022/08/22 10:30:06;;;;;;;4.80;2.80;;;;;;;28.04;51.98;98894.34;5092758;28;20198;-80
2022/08/22 10:32:41;;;;;;;5.13;2.83;;;;;;;28.35;53.19;98873.66;5092422;28;20682;-80
2022/08/22 10:35:21;;;;;;;5.03;2.80;;;;;;;28.49;53.58;98883.44;5092854;28;20217;-80
2022/08/22 10:37:58;;;;;;;3.95;2.60;;;;;;;28.46;53.46;98871.06;5055616;28;20191;-80
2022/08/22 10:40:32;;;;;;;4.10;2.50;;;;;;;29.17;50.51;98871.75;5096448;28;20204;-81
2022/08/22 10:43:11;;;;;;;4.30;2.60;;;;;;;29.79;46.58;98872.56;5092355;28;20282;-81
2022/08/22 10:45:45;;;;;;;4.22;2.65;;;;;;;29.81;48.20;98868.50;5112107;28;20191;-81
2022/08/22 10:48:32;;;;;;;3.92;2.78;;;;;;;30.34;46.77;98878.75;5113504;28;20202;-81
2022/08/22 10:51:15;;;;;;;3.92;2.75;;;;;;;30.37;46.31;98874.72;5106461;28;20203;-81
2022/08/22 10:53:57;;;;;;;2.85;2.53;;;;;;;30.04;45.69;98865.09;5113555;28;20351;-81
2022/08/22 10:56:33;;;;;;;3.85;2.67;;;;;;;29.72;46.28;98877.25;5063551;28;20653;-81
2022/08/22 10:59:19;;;;;;;6.07;2.42;;;;;;;29.47;46.21;98869.97;5012572;28;20208;-81
2022/08/22 11:02:10;;;;;;;2.95;2.30;;;;;;;29.43;46.77;98874.19;5009138;28;20375;-81
2022/08/22 11:04:59;;;;;;;3.33;2.20;;;;;;;29.60;43.92;98869.84;5009852;28;20206;-81
2022/08/22 11:07:48;;;;;;;5.43;2.47;;;;;;;30.35;43.87;98865.94;5010503;28;20233;-81
2022/08/22 11:10:27;;;;;;;4.10;2.50;;;;;;;30.27;43.13;98877.19;5015337;28;20274;-81
2022/08/22 11:13:11;;;;;;;4.80;2.55;;;;;;;29.16;46.59;98861.91;5009782;28;20246;-81
2022/08/22 11:16:07;;;;;;;5.47;2.38;;;;;;;29.64;44.19;98865.59;5008255;28;20206;-81
2022/08/22 11:18:52;;;;;;;3.75;2.40;;;;;;;29.38;44.50;98865.88;5113067;28;20230;-81
2022/08/22 11:21:44;;;;;;;5.47;2.30;;;;;;;29.34;44.42;98860.03;5114883;28;20183;-81
2022/08/22 11:24:34;;;;;;;5.57;2.40;;;;;;;29.44;44.41;98861.41;5111158;28;20195;-81
2022/08/22 11:27:34;;;;;;;3.55;2.38;;;;;;;29.58;43.33;98854.75;5078646;28;20334;-80
2022/08/22 11:30:12;;;;;;;2.95;1.88;;;;;;;29.23;43.03;98860.75;5112988;28;20696;-81
2022/08/22 11:33:14;;;;;;;3.05;2.22;;;;;;;28.41;44.75;98851.81;5112400;28;20213;-81
2022/08/22 11:35:52;;;;;;;4.65;2.40;;;;;;;28.54;45.64;98845.44;5110792;28;20278;-81
2022/08/22 11:38:33;;;;;;;3.70;2.30;;;;;;;28.74;45.22;98850.72;5112304;28;20183;-81
2022/08/22 11:41:12;;;;;;;3.42;2.20;;;;;;;29.13;44.52;98846.81;5106627;28;20191;-81
2022/08/22 11:43:55;;;;;;;3.20;2.28;;;;;;;29.58;43.64;98852.84;5072586;28;20223;-81
2022/08/22 11:46:29;;;;;;;3.05;2.40;;;;;;;29.27;44.59;98848.34;5095289;28;20271;-80
2022/08/22 11:49:17;;;;;;;4.68;2.50;;;;;;;29.07;44.49;98848.56;5089608;28;20196;-81
2022/08/22 11:52:16;;;;;;;3.78;2.38;;;;;;;29.51;43.23;98840.34;5092089;28;20237;-81
2022/08/22 11:55:10;;;;;;;3.40;2.30;;;;;;;30.33;39.48;98838.84;5089384;28;20239;-81
2022/08/22 11:57:42;;;;;;;4.93;2.35;;;;;;;30.56;39.05;98835.31;5058345;28;20196;-81
2022/08/22 12:00:28;;;;;;;3.30;2.47;;;;;;;31.27;37.46;98831.59;5028145;28;20202;-81
2022/08/22 12:03:41;;;;;;;3.42;2.20;;;;;;;32.17;35.30;98833.69;5032682;28;20205;-81
2022/08/22 12:06:33;;;;;;;3.92;3.10;;;;;;;31.84;35.54;98837.16;5032752;28;20211;-81
2022/08/22 12:09:27;;;;;;;3.65;2.40;;;;;;;31.10;37.95;98824.31;5048787;28;20205;-81
2022/08/22 12:12:14;;;;;;;3.45;2.33;;;;;;;31.09;38.31;98828.13;5015881;28;20232;-81
2022/08/22 12:14:49;;;;;;;4.38;2.70;;;;;;;31.56;37.08;98824.28;4990319;28;20282;-82
2022/08/22 12:17:41;;;;;;;4.43;2.58;;;;;;;31.38;37.37;98826.34;4989490;28;20202;-81
2022/08/22 12:20:45;;;;;;;4.05;2.40;;;;;;;31.88;36.78;98819.19;4976288;28;20285;-81
2022/08/22 12:23:32;;;;;;;3.70;2.38;;;;;;;32.19;35.96;98817.00;4990447;28;20211;-82
2022/08/22 12:26:27;;;;;;;3.60;2.40;;;;;;;32.18;35.02;98826.31;5050947;28;20270;-81
2022/08/22 12:29:11;;;;;;;4.70;2.33;;;;;;;29.72;39.87;98828.09;5048540;28;20199;-81
2022/08/22 12:32:15;;;;;;;7.07;2.17;;;;;;;30.15;39.24;98817.03;5055528;28;20197;-81
2022/08/22 12:35:01;;;;;;;3.28;2.03;;;;;;;30.06;39.50;98812.94;5112555;28;20195;-81
2022/08/22 12:37:50;;;;;;;4.18;2.35;;;;;;;31.04;37.00;98809.66;5112847;28;20195;-82
2022/08/22 12:40:29;;;;;;;4.97;2.05;;;;;;;31.59;36.07;98803.78;5048415;28;20188;-81
2022/08/22 12:43:35;;;;;;;7.60;3.22;;;;;;;32.65;34.50;98790.41;5041648;28;20200;-82